Time;durP1;ratioP1;P1;durP2;ratioP2;P2;SDS_P1;SDS_P2;PMS_P1;PMS_P2;Temp;Humidity;BMP_temperature;BMP_pressure;BME280_temperature;BME280_humidity;BME280_pressure;Samples;Min_cycle;Max_cycle;Signal;HPM_P1;HPM_P2
2022/03/07 00:02:15;;;;;;;3.80;2.53;;;20.00;44.50;;;;;;4977494;28;20198;-69
2022/03/07 00:04:41;;;;;;;7.20;2.60;;;19.90;44.40;;;;;;4977615;28;20179;-70
2022/03/07 00:07:07;;;;;;;8.80;2.33;;;19.90;44.40;;;;;;4977304;28;20511;-70
2022/03/07 00:09:32;;;;;;;4.20;2.23;;;19.90;44.60;;;;;;4976902;28;20195;-70
2022/03/07 00:11:58;;;;;;;3.50;2.33;;;19.90;44.60;;;;;;4977128;28;20656;-70
2022/03/07 00:14:23;;;;;;;3.63;2.50;;;19.90;44.60;;;;;;4977387;28;20186;-70
2022/03/07 00:16:49;;;;;;;3.10;1.87;;;19.90;44.40;;;;;;4995012;28;20612;-69
2022/03/07 00:19:15;;;;;;;2.70;2.00;;;19.90;44.40;;;;;;4976805;28;20215;-68
2022/03/07 00:21:42;;;;;;;7.93;2.67;;;19.90;44.40;;;;;;4976755;28;20329;-68
2022/03/07 00:24:08;;;;;;;7.63;3.20;;;19.90;44.10;;;;;;4976526;28;20435;-68
2022/03/07 00:26:34;;;;;;;7.80;3.07;;;19.80;43.90;;;;;;4977010;28;20477;-70
2022/03/07 00:29:00;;;;;;;4.23;2.60;;;19.80;44.30;;;;;;4976683;28;20509;-70
2022/03/07 00:31:26;;;;;;;4.10;2.87;;;19.80;44.00;;;;;;4977041;28;20526;-70
2022/03/07 00:33:52;;;;;;;6.60;2.40;;;19.80;44.20;;;;;;4977033;28;20195;-69
2022/03/07 00:36:19;;;;;;;5.07;2.50;;;19.80;43.90;;;;;;4976692;28;20211;-69
2022/03/07 00:38:46;;;;;;;11.90;2.20;;;19.80;43.90;;;;;;4976245;28;20502;-68
2022/03/07 00:41:12;;;;;;;3.87;2.27;;;19.80;44.00;;;;;;4976340;28;20442;-70
2022/03/07 00:43:39;;;;;;;5.83;2.50;;;19.70;44.00;;;;;;4976503;28;20477;-69
2022/03/07 00:46:05;;;;;;;3.47;2.47;;;19.80;44.90;;;;;;4976802;28;20176;-68
2022/03/07 00:48:30;;;;;;;4.37;2.70;;;19.70;44.00;;;;;;4976411;28;20431;-71
2022/03/07 00:50:56;;;;;;;8.03;2.57;;;19.70;44.40;;;;;;4976404;28;20194;-70
2022/03/07 00:53:24;;;;;;;3.73;2.17;;;19.70;44.50;;;;;;4976466;28;20229;-69
2022/03/07 00:55:50;;;;;;;4.20;2.53;;;19.70;44.20;;;;;;4976505;28;20184;-70
2022/03/07 00:58:17;;;;;;;4.23;2.37;;;19.70;44.20;;;;;;4975712;28;20472;-69
2022/03/07 01:00:43;;;;;;;6.53;2.57;;;19.80;44.10;;;;;;4975925;28;20492;-68
2022/03/07 01:03:11;;;;;;;11.63;3.10;;;19.70;44.20;;;;;;4976492;28;20531;-69
2022/03/07 01:05:38;;;;;;;2.87;2.20;;;19.70;44.20;;;;;;4976460;28;20422;-69
2022/03/07 01:08:04;;;;;;;3.30;2.80;;;19.70;43.80;;;;;;4976352;28;20565;-67
2022/03/07 01:10:30;;;;;;;3.23;2.47;;;19.70;44.40;;;;;;4975435;28;20533;-68
2022/03/07 01:12:56;;;;;;;5.57;2.80;;;19.70;43.90;;;;;;4976213;28;20454;-69
2022/03/07 01:15:22;;;;;;;3.30;2.60;;;19.70;43.60;;;;;;4976205;28;20611;-68
2022/03/07 01:17:48;;;;;;;5.40;2.30;;;19.70;43.70;;;;;;4976218;28;20718;-68
2022/03/07 01:20:13;;;;;;;4.17;2.40;;;19.80;43.90;;;;;;4975308;28;20183;-69
2022/03/07 01:22:41;;;;;;;8.93;2.67;;;19.70;43.70;;;;;;4976156;28;20438;-69
2022/03/07 01:25:07;;;;;;;4.30;2.50;;;19.70;43.80;;;;;;4976168;28;20179;-69
2022/03/07 01:27:33;;;;;;;6.63;2.40;;;19.80;43.90;;;;;;4976058;28;20430;-70
2022/03/07 01:29:59;;;;;;;2.90;2.00;;;19.80;45.00;;;;;;4975554;28;20525;-68
2022/03/07 01:32:25;;;;;;;4.03;2.47;;;19.90;44.50;;;;;;4975904;28;20214;-69
2022/03/07 01:34:50;;;;;;;3.93;2.30;;;19.80;42.80;;;;;;4993708;28;20624;-69
2022/03/07 01:37:16;;;;;;;5.57;2.30;;;19.80;43.10;;;;;;4993340;28;20218;-69
2022/03/07 01:39:42;;;;;;;6.43;2.23;;;19.80;42.80;;;;;;4975606;28;20206;-68
2022/03/07 01:42:08;;;;;;;10.40;2.50;;;19.80;42.80;;;;;;4975838;28;20447;-68
2022/03/07 01:44:34;;;;;;;18.73;2.77;;;19.80;42.70;;;;;;4975960;28;20190;-69
2022/03/07 01:47:00;;;;;;;7.50;2.47;;;19.80;43.10;;;;;;4975566;28;20233;-68
2022/03/07 01:49:25;;;;;;;4.10;2.40;;;19.80;42.90;;;;;;4975184;28;20179;-69
2022/03/07 01:51:52;;;;;;;4.77;2.40;;;19.80;43.10;;;;;;4975321;28;20450;-69
2022/03/07 01:54:19;;;;;;;7.60;2.33;;;19.80;43.20;;;;;;4991937;28;20183;-70
2022/03/07 01:56:48;;;;;;;11.80;2.53;;;19.80;42.90;;;;;;4975371;28;20427;-69
2022/03/07 01:59:16;;;;;;;3.97;2.10;;;19.80;42.90;;;;;;4975009;28;20604;-69
2022/03/07 02:01:43;;;;;;;5.60;2.60;;;19.80;43.10;;;;;;4975635;28;20457;-68
2022/03/07 02:04:10;;;;;;;6.67;2.20;;;19.80;43.50;;;;;;4975338;28;20437;-70
2022/03/07 02:06:38;;;;;;;4.90;2.40;;;19.80;43.80;;;;;;4975057;28;20787;-70
2022/03/07 02:09:04;;;;;;;12.17;2.27;;;19.70;43.50;;;;;;4975681;28;20521;-70
2022/03/07 02:11:30;;;;;;;3.37;2.50;;;19.80;43.40;;;;;;4979715;28;20434;-68
2022/03/07 02:13:55;;;;;;;10.23;2.40;;;19.80;43.70;;;;;;4979609;28;20496;-68
2022/03/07 02:16:21;;;;;;;8.07;2.30;;;19.80;43.30;;;;;;4979563;28;20622;-69
2022/03/07 02:18:47;;;;;;;6.73;2.20;;;19.80;43.50;;;;;;4979030;28;20225;-67
2022/03/07 02:21:15;;;;;;;2.90;1.97;;;19.80;43.40;;;;;;4978865;28;20215;-69
2022/03/07 02:23:42;;;;;;;15.40;2.40;;;19.80;43.40;;;;;;4979440;28;20440;-67
2022/03/07 02:26:16;;;;;;;15.23;2.30;;;19.80;43.60;;;;;;4979573;28;20407;-69
2022/03/07 02:28:44;;;;;;;3.43;2.17;;;19.80;43.10;;;;;;4996427;28;20434;-69
2022/03/07 02:31:11;;;;;;;7.30;2.13;;;19.80;43.40;;;;;;4979068;28;20525;-69
2022/03/07 02:33:37;;;;;;;4.23;2.10;;;19.70;43.00;;;;;;4978913;28;20795;-68
2022/03/07 02:36:04;;;;;;;17.20;2.40;;;19.70;43.30;;;;;;4979133;28;20553;-68
2022/03/07 02:38:30;;;;;;;3.17;2.00;;;19.70;43.00;;;;;;4978560;28;20457;-69
2022/03/07 02:40:56;;;;;;;7.87;2.27;;;19.70;43.60;;;;;;4978996;28;20461;-68
2022/03/07 02:43:21;;;;;;;7.63;2.50;;;19.60;44.20;;;;;;4978913;28;20452;-70
2022/03/07 02:45:47;;;;;;;6.60;2.57;;;19.70;44.60;;;;;;4978671;28;20907;-69
2022/03/07 02:48:13;;;;;;;4.17;2.37;;;19.70;43.30;;;;;;4979009;28;20268;-70
2022/03/07 02:50:39;;;;;;;8.70;2.20;;;19.70;43.20;;;;;;4978139;28;20738;-68
2022/03/07 02:53:05;;;;;;;5.97;2.50;;;19.60;43.30;;;;;;4978681;28;20974;-70
2022/03/07 02:55:32;;;;;;;2.90;2.20;;;19.60;43.40;;;;;;4978392;28;20187;-70
2022/03/07 02:57:58;;;;;;;4.50;2.20;;;19.60;44.90;;;;;;4978902;28;20589;-68
2022/03/07 03:00:24;;;;;;;4.50;2.43;;;19.60;45.30;;;;;;4977315;28;20866;-69
2022/03/07 03:02:49;;;;;;;4.40;2.40;;;19.50;45.50;;;;;;4978516;28;20182;-69
2022/03/07 03:05:15;;;;;;;7.83;2.50;;;19.40;45.50;;;;;;4978402;28;20175;-68
2022/03/07 03:07:41;;;;;;;3.70;2.03;;;19.40;45.60;;;;;;4978252;28;20238;-67
2022/03/07 03:10:08;;;;;;;7.63;2.23;;;19.40;45.60;;;;;;4977928;28;20190;-69
2022/03/07 03:12:34;;;;;;;3.10;2.13;;;19.40;45.60;;;;;;4978460;28;20175;-67
2022/03/07 03:14:59;;;;;;;3.67;1.90;;;19.40;45.40;;;;;;4971596;28;20928;-68
2022/03/07 03:17:26;;;;;;;2.93;2.07;;;19.40;45.80;;;;;;4978422;28;20453;-66
2022/03/07 03:19:52;;;;;;;2.33;1.97;;;19.40;46.40;;;;;;4977441;28;20229;-69
2022/03/07 03:22:19;;;;;;;4.57;2.27;;;19.40;45.30;;;;;;4977554;28;20982;-69
2022/03/07 03:24:46;;;;;;;3.97;1.90;;;19.50;44.10;;;;;;4977731;28;20462;-69
2022/03/07 03:27:11;;;;;;;4.50;2.13;;;19.50;43.70;;;;;;4978271;28;20183;-67
2022/03/07 03:29:37;;;;;;;7.33;2.03;;;19.50;43.50;;;;;;4977794;28;20517;-67
2022/03/07 03:32:03;;;;;;;3.40;2.40;;;19.50;43.70;;;;;;4978282;28;20294;-69
2022/03/07 03:34:29;;;;;;;2.67;1.60;;;19.50;44.00;;;;;;4977789;28;20210;-68
2022/03/07 03:36:55;;;;;;;3.30;1.63;;;19.50;43.70;;;;;;4995803;28;20454;-67
2022/03/07 03:39:20;;;;;;;4.07;2.13;;;19.60;43.70;;;;;;4977183;28;20240;-69
2022/03/07 03:41:46;;;;;;;2.90;2.20;;;19.60;43.90;;;;;;4977636;28;20619;-70
2022/03/07 03:44:12;;;;;;;3.97;2.40;;;19.50;43.60;;;;;;4977894;28;20182;-69
2022/03/07 03:46:38;;;;;;;3.97;2.50;;;19.50;43.50;;;;;;4977878;28;20274;-69
2022/03/07 03:49:04;;;;;;;5.67;2.40;;;19.50;43.90;;;;;;4977165;28;20282;-69
2022/03/07 03:51:29;;;;;;;4.37;2.10;;;19.50;44.20;;;;;;4977306;28;20461;-68
2022/03/07 03:53:55;;;;;;;4.90;2.30;;;19.60;43.90;;;;;;4977583;28;20183;-69
2022/03/07 03:56:21;;;;;;;2.80;2.00;;;19.50;43.90;;;;;;4977609;28;20232;-68
2022/03/07 03:58:47;;;;;;;5.10;2.50;;;19.60;43.70;;;;;;4977221;28;20214;-69
2022/03/07 04:01:12;;;;;;;7.63;2.10;;;19.50;44.00;;;;;;4977245;28;20536;-69
2022/03/07 04:03:38;;;;;;;4.10;2.37;;;19.50;43.70;;;;;;4977612;28;20175;-69
2022/03/07 04:06:06;;;;;;;4.13;2.53;;;19.50;44.00;;;;;;4976867;28;20183;-69
2022/03/07 04:08:32;;;;;;;3.80;1.80;;;19.50;44.60;;;;;;4977042;28;20190;-69
2022/03/07 04:10:58;;;;;;;10.33;2.20;;;19.50;43.90;;;;;;4977021;28;21081;-69
2022/03/07 04:13:24;;;;;;;4.10;2.40;;;19.50;44.30;;;;;;4977360;28;20508;-67
2022/03/07 04:15:50;;;;;;;3.00;2.17;;;19.60;44.10;;;;;;4977108;28;20943;-69
2022/03/07 04:18:15;;;;;;;2.33;1.93;;;19.60;44.30;;;;;;4976991;28;20207;-68
2022/03/07 04:20:42;;;;;;;5.00;2.30;;;19.60;43.70;;;;;;4976335;28;20238;-69
2022/03/07 04:23:07;;;;;;;14.53;2.30;;;19.60;44.40;;;;;;4994177;28;20688;-69
2022/03/07 04:25:33;;;;;;;3.50;2.33;;;19.50;44.00;;;;;;4976940;28;20514;-70
2022/03/07 04:28:00;;;;;;;4.17;2.13;;;19.60;44.20;;;;;;4976907;28;20211;-68
2022/03/07 04:30:26;;;;;;;3.00;1.93;;;19.60;44.20;;;;;;4976430;28;20289;-69
2022/03/07 04:32:52;;;;;;;7.27;2.63;;;19.60;44.00;;;;;;4976879;28;20419;-68
2022/03/07 04:35:18;;;;;;;3.50;2.33;;;19.60;44.40;;;;;;4976418;28;20970;-67
2022/03/07 04:37:43;;;;;;;2.73;1.87;;;19.60;44.20;;;;;;4976934;28;20211;-70
2022/03/07 04:40:13;;;;;;;2.57;1.87;;;19.60;44.40;;;;;;4976026;28;20179;-66
2022/03/07 04:42:40;;;;;;;3.33;2.00;;;19.60;44.20;;;;;;4994489;28;20159;-69
2022/03/07 04:45:06;;;;;;;2.53;1.83;;;19.50;44.30;;;;;;4976340;28;20437;-66
2022/03/07 04:47:32;;;;;;;2.93;2.30;;;19.60;44.00;;;;;;4976782;28;20926;-68
2022/03/07 04:49:58;;;;;;;3.43;2.07;;;19.60;44.00;;;;;;4975875;28;20434;-69
2022/03/07 04:52:24;;;;;;;4.00;2.60;;;19.50;43.90;;;;;;4976789;28;20191;-67
2022/03/07 04:54:50;;;;;;;3.80;2.27;;;19.50;44.20;;;;;;4976318;28;20521;-70
2022/03/07 04:57:15;;;;;;;2.57;1.90;;;19.50;43.90;;;;;;4976337;28;20544;-70
2022/03/07 04:59:43;;;;;;;2.63;2.00;;;19.50;43.80;;;;;;4975872;28;20229;-69
2022/03/07 05:02:08;;;;;;;4.40;2.50;;;19.50;44.20;;;;;;4975956;28;20199;-71
2022/03/07 05:04:34;;;;;;;4.00;2.60;;;19.60;44.00;;;;;;4993408;28;20489;-70
2022/03/07 05:07:00;;;;;;;3.07;2.13;;;19.50;44.10;;;;;;4976540;28;20265;-71
2022/03/07 05:09:25;;;;;;;4.37;2.27;;;19.50;43.80;;;;;;4975848;28;20227;-69
2022/03/07 05:11:51;;;;;;;3.60;2.33;;;19.50;43.70;;;;;;4976157;28;20319;-69
2022/03/07 05:14:18;;;;;;;3.30;2.50;;;19.60;43.90;;;;;;4975837;28;20183;-71
2022/03/07 05:16:43;;;;;;;3.30;2.10;;;19.50;44.00;;;;;;4976020;28;20183;-69
2022/03/07 05:19:09;;;;;;;5.73;2.17;;;19.50;43.90;;;;;;4975281;28;20609;-69
2022/03/07 05:21:35;;;;;;;3.50;2.30;;;19.50;43.60;;;;;;4975544;28;20211;-69
2022/03/07 05:24:00;;;;;;;6.53;2.33;;;19.50;44.00;;;;;;4975927;28;20198;-67
2022/03/07 05:26:26;;;;;;;2.97;2.00;;;19.50;44.10;;;;;;4975800;28;20994;-69
2022/03/07 05:28:52;;;;;;;4.77;2.50;;;19.50;44.10;;;;;;4975408;28;20257;-69
2022/03/07 05:31:19;;;;;;;4.23;2.50;;;19.40;43.90;;;;;;4975517;28;20290;-67
2022/03/07 05:33:44;;;;;;;3.67;2.30;;;19.40;44.10;;;;;;4975807;28;20206;-69
2022/03/07 05:36:10;;;;;;;4.90;2.10;;;19.40;44.10;;;;;;4975874;28;20457;-69
2022/03/07 05:38:36;;;;;;;6.20;2.50;;;19.40;43.80;;;;;;4975726;28;20342;-68
2022/03/07 05:41:02;;;;;;;5.43;2.80;;;19.40;44.10;;;;;;4975430;28;20237;-69
2022/03/07 05:43:28;;;;;;;3.20;2.30;;;19.40;44.00;;;;;;4976246;28;20214;-66
2022/03/07 05:45:54;;;;;;;21.80;3.37;;;19.40;44.30;;;;;;4981994;28;20438;-69
2022/03/07 05:48:20;;;;;;;3.80;2.27;;;19.40;44.90;;;;;;4982151;28;20233;-70
2022/03/07 05:50:45;;;;;;;23.77;2.53;;;19.40;45.50;;;;;;4984942;28;20189;-70
2022/03/07 05:53:11;;;;;;;7.10;2.60;;;19.40;46.00;;;;;;4993120;28;20512;-70
2022/03/07 05:55:37;;;;;;;12.93;2.60;;;19.50;44.70;;;;;;5002146;28;20221;-67
2022/03/07 05:58:03;;;;;;;3.37;2.10;;;19.50;44.80;;;;;;4984652;28;20234;-69
2022/03/07 06:00:29;;;;;;;9.13;2.60;;;19.40;44.60;;;;;;4981937;28;20437;-70
2022/03/07 06:02:56;;;;;;;5.53;2.10;;;19.40;44.30;;;;;;4982520;28;20217;-70
2022/03/07 06:05:22;;;;;;;6.13;2.47;;;19.40;44.70;;;;;;4988909;28;20737;-68
2022/03/07 06:07:48;;;;;;;5.80;2.83;;;19.40;44.30;;;;;;4998209;28;20907;-68
2022/03/07 06:10:13;;;;;;;4.20;3.37;;;19.40;44.10;;;;;;4981624;28;20425;-68
2022/03/07 06:12:39;;;;;;;3.93;2.90;;;19.40;43.40;;;;;;4982044;28;20189;-67
2022/03/07 06:15:06;;;;;;;3.80;2.70;;;19.40;43.60;;;;;;4981787;28;20520;-69
2022/03/07 06:17:34;;;;;;;8.03;3.00;;;19.40;44.60;;;;;;4982153;28;20667;-71
2022/03/07 06:20:00;;;;;;;4.70;2.87;;;19.40;44.00;;;;;;4981608;28;20731;-68
2022/03/07 06:22:26;;;;;;;11.73;2.80;;;19.40;44.10;;;;;;4982227;28;20417;-70
2022/03/07 06:24:52;;;;;;;10.37;2.83;;;19.40;44.20;;;;;;4982157;28;20995;-70
2022/03/07 06:27:17;;;;;;;10.40;2.60;;;19.40;44.40;;;;;;4982177;28;20171;-70
2022/03/07 06:29:43;;;;;;;7.30;2.93;;;19.40;44.70;;;;;;4981454;28;20426;-69
2022/03/07 06:32:09;;;;;;;4.63;3.13;;;19.40;44.10;;;;;;4981736;28;20211;-69
2022/03/07 06:34:35;;;;;;;19.23;2.90;;;19.40;44.20;;;;;;4982221;28;20183;-68
2022/03/07 06:37:01;;;;;;;4.47;2.80;;;19.40;44.00;;;;;;4982085;28;20429;-69
2022/03/07 06:39:27;;;;;;;4.00;2.67;;;19.40;43.60;;;;;;4981509;28;20214;-70
2022/03/07 06:41:56;;;;;;;6.13;2.63;;;19.40;43.60;;;;;;4982152;28;20464;-69
2022/03/07 06:44:25;;;;;;;12.23;2.93;;;19.40;43.70;;;;;;4982009;28;20779;-68
2022/03/07 06:46:51;;;;;;;6.37;2.70;;;19.40;43.80;;;;;;4997994;28;20509;-69
2022/03/07 06:49:16;;;;;;;4.63;2.80;;;19.40;44.10;;;;;;4981572;28;20454;-69
2022/03/07 06:51:42;;;;;;;3.90;2.63;;;19.50;43.90;;;;;;4981683;28;20457;-68
2022/03/07 06:54:08;;;;;;;9.93;2.83;;;19.40;43.60;;;;;;4982085;28;20678;-69
2022/03/07 06:56:33;;;;;;;5.93;2.63;;;19.50;43.50;;;;;;4978629;28;20590;-68
2022/03/07 06:58:59;;;;;;;9.77;2.37;;;19.50;44.20;;;;;;4978369;28;20207;-68
2022/03/07 07:01:25;;;;;;;4.10;2.83;;;19.50;43.80;;;;;;4978748;28;20222;-68
2022/03/07 07:03:51;;;;;;;15.13;3.40;;;19.50;43.60;;;;;;4978727;28;20811;-69
2022/03/07 07:06:16;;;;;;;9.07;3.13;;;19.50;43.50;;;;;;4978282;28;20183;-69
2022/03/07 07:08:42;;;;;;;6.30;3.07;;;19.60;43.70;;;;;;4996049;28;20181;-68
2022/03/07 07:11:08;;;;;;;4.23;2.97;;;19.60;44.40;;;;;;4978620;28;20203;-67
2022/03/07 07:13:33;;;;;;;9.00;3.80;;;19.60;43.50;;;;;;4978638;28;20659;-69
2022/03/07 07:15:59;;;;;;;12.83;3.67;;;19.60;44.10;;;;;;4978649;28;20241;-69
2022/03/07 07:18:25;;;;;;;11.70;3.40;;;19.60;44.00;;;;;;4978364;28;20207;-70
2022/03/07 07:20:52;;;;;;;12.83;3.27;;;19.70;43.70;;;;;;4977693;28;20558;-69
2022/03/07 07:23:21;;;;;;;4.73;3.20;;;19.60;44.00;;;;;;4978407;28;20414;-69
2022/03/07 07:25:48;;;;;;;5.80;2.67;;;19.70;44.40;;;;;;4978023;28;20457;-68
2022/03/07 07:28:14;;;;;;;6.47;3.30;;;19.70;44.80;;;;;;4978417;28;20425;-71
2022/03/07 07:30:40;;;;;;;5.37;2.93;;;19.90;44.90;;;;;;4977920;28;20489;-69
2022/03/07 07:33:06;;;;;;;5.17;3.60;;;19.90;44.90;;;;;;4978210;28;21519;-70
2022/03/07 07:35:34;;;;;;;7.13;3.83;;;19.90;44.20;;;;;;4978207;28;20442;-70
2022/03/07 07:38:00;;;;;;;25.67;8.80;;;19.90;43.40;;;;;;4977727;28;20473;-72
2022/03/07 07:40:26;;;;;;;35.03;13.80;;;20.00;42.80;;;;;;4977635;28;20435;-70
2022/03/07 07:42:52;;;;;;;37.87;14.60;;;20.10;43.40;;;;;;4978051;28;20445;-70
2022/03/07 07:45:18;;;;;;;39.30;14.80;;;20.10;42.70;;;;;;4978013;28;20410;-70
2022/03/07 07:47:43;;;;;;;45.60;18.70;;;20.10;42.10;;;;;;4978131;28;20211;-69
2022/03/07 07:50:10;;;;;;;52.00;19.50;;;20.20;42.80;;;;;;4977436;28;20183;-70
2022/03/07 07:52:36;;;;;;;53.93;19.23;;;20.20;41.50;;;;;;4993727;28;20594;-72
2022/03/07 07:55:04;;;;;;;56.50;18.90;;;20.20;43.00;;;;;;4977691;28;20927;-71
2022/03/07 07:57:30;;;;;;;54.37;17.67;;;20.30;41.50;;;;;;4977182;28;20434;-71
2022/03/07 07:59:56;;;;;;;45.57;18.30;;;20.20;41.30;;;;;;4994586;28;20500;-70
2022/03/07 08:02:21;;;;;;;46.80;16.63;;;20.20;41.20;;;;;;4997197;28;20521;-70
2022/03/07 08:04:47;;;;;;;44.00;16.73;;;20.20;41.50;;;;;;5004934;28;20182;-70
2022/03/07 08:07:14;;;;;;;43.37;17.80;;;20.20;42.10;;;;;;4992613;28;20197;-69
2022/03/07 08:09:39;;;;;;;46.20;17.80;;;20.20;41.60;;;;;;4975530;28;20202;-70
2022/03/07 08:12:05;;;;;;;42.53;15.40;;;20.20;41.70;;;;;;4975996;28;20894;-71
2022/03/07 08:14:31;;;;;;;39.77;15.37;;;20.20;42.40;;;;;;4993476;28;20579;-71
2022/03/07 08:16:57;;;;;;;40.83;16.80;;;20.10;42.00;;;;;;4975174;28;20175;-69
2022/03/07 08:19:22;;;;;;;33.33;13.73;;;20.10;41.70;;;;;;4992690;28;20201;-69
2022/03/07 08:21:48;;;;;;;45.03;16.03;;;20.10;42.00;;;;;;4975701;28;20246;-70
2022/03/07 08:24:14;;;;;;;40.53;15.17;;;20.10;42.10;;;;;;4976179;28;20647;-70
2022/03/07 08:26:40;;;;;;;36.87;14.10;;;20.10;41.90;;;;;;4976237;28;20296;-71
2022/03/07 08:29:06;;;;;;;29.73;13.53;;;20.10;42.40;;;;;;4975545;28;20584;-71
2022/03/07 08:31:31;;;;;;;27.63;12.70;;;20.00;41.80;;;;;;4976042;28;20438;-71
2022/03/07 08:33:57;;;;;;;30.20;12.50;;;20.00;42.10;;;;;;4976071;28;20179;-71
2022/03/07 08:36:23;;;;;;;32.00;11.83;;;20.00;42.20;;;;;;4975648;28;20567;-71
2022/03/07 08:38:48;;;;;;;33.13;12.70;;;20.00;42.40;;;;;;4993595;28;20194;-70
2022/03/07 08:41:14;;;;;;;25.93;12.00;;;20.00;42.60;;;;;;4989995;28;20202;-70
2022/03/07 08:43:42;;;;;;;24.03;11.10;;;20.00;42.00;;;;;;4975653;28;20175;-70
2022/03/07 08:46:08;;;;;;;25.50;11.90;;;20.00;41.90;;;;;;4975750;28;20178;-70
2022/03/07 08:48:33;;;;;;;29.73;11.60;;;20.00;42.00;;;;;;4975375;28;20477;-70
2022/03/07 08:50:59;;;;;;;22.90;10.80;;;20.00;41.40;;;;;;4975529;28;20662;-71
2022/03/07 08:53:25;;;;;;;27.60;11.33;;;20.00;41.90;;;;;;4980300;28;21255;-70
2022/03/07 08:55:51;;;;;;;19.93;9.87;;;20.00;41.80;;;;;;5012376;28;20202;-70
2022/03/07 08:58:16;;;;;;;18.37;9.90;;;20.00;41.50;;;;;;4992670;28;20720;-71
2022/03/07 09:00:42;;;;;;;22.57;9.77;;;20.00;41.70;;;;;;4974678;28;20195;-72
2022/03/07 09:03:07;;;;;;;23.10;10.63;;;20.00;41.20;;;;;;4975212;28;20179;-70
2022/03/07 09:05:35;;;;;;;19.07;9.13;;;20.10;41.10;;;;;;4975655;28;20281;-70
2022/03/07 09:08:01;;;;;;;19.20;9.27;;;20.10;41.00;;;;;;4975559;28;20647;-70
2022/03/07 09:10:27;;;;;;;20.17;9.50;;;20.20;41.10;;;;;;4974358;28;21320;-70
2022/03/07 09:12:54;;;;;;;21.53;9.10;;;20.20;40.60;;;;;;4975185;28;20178;-69
2022/03/07 09:15:20;;;;;;;24.37;9.57;;;20.30;40.70;;;;;;4974958;28;20186;-70
2022/03/07 09:17:45;;;;;;;18.57;9.03;;;20.40;40.60;;;;;;4979295;28;21007;-69
2022/03/07 09:20:13;;;;;;;25.00;9.50;;;20.50;39.50;;;;;;4993371;28;20425;-69
2022/03/07 09:22:39;;;;;;;19.87;9.23;;;20.70;39.30;;;;;;4983848;28;20163;-69
2022/03/07 09:25:06;;;;;;;17.53;6.60;;;20.80;39.40;;;;;;4975029;28;20414;-69
2022/03/07 09:27:32;;;;;;;15.70;8.40;;;20.90;38.60;;;;;;4975356;28;20437;-69
2022/03/07 09:29:57;;;;;;;17.67;7.50;;;21.00;37.80;;;;;;4974547;28;20484;-69
2022/03/07 09:32:23;;;;;;;17.20;7.67;;;21.10;38.40;;;;;;4975021;28;20434;-70
2022/03/07 09:34:49;;;;;;;20.03;8.10;;;21.20;38.30;;;;;;4975059;28;20174;-70
2022/03/07 09:37:14;;;;;;;14.23;6.67;;;21.30;39.50;;;;;;4991760;28;20174;-70
2022/03/07 09:39:40;;;;;;;14.30;6.63;;;21.40;38.30;;;;;;4974851;28;20286;-70
2022/03/07 09:42:06;;;;;;;16.57;7.70;;;21.40;42.20;;;;;;4975626;28;20213;-70
2022/03/07 09:44:33;;;;;;;13.57;7.10;;;21.50;42.10;;;;;;4976121;28;20253;-70
2022/03/07 09:47:00;;;;;;;14.60;6.80;;;21.50;42.40;;;;;;4976061;28;20414;-71
2022/03/07 09:49:25;;;;;;;13.30;6.50;;;21.60;43.20;;;;;;4975460;28;20522;-70
2022/03/07 09:51:52;;;;;;;10.93;5.73;;;21.60;43.40;;;;;;4975977;28;20470;-69
2022/03/07 09:54:18;;;;;;;13.80;6.23;;;21.70;43.40;;;;;;4975263;28;20171;-71
2022/03/07 09:56:44;;;;;;;11.07;6.47;;;21.70;43.10;;;;;;4975613;28;20489;-70
2022/03/07 09:59:10;;;;;;;10.43;5.47;;;21.70;42.70;;;;;;4975119;28;20281;-71
2022/03/07 10:01:36;;;;;;;9.00;5.90;;;21.80;43.00;;;;;;4975650;28;20218;-70
2022/03/07 10:04:07;;;;;;;14.30;5.73;;;21.80;41.60;;;;;;4975421;28;20178;-70
2022/03/07 10:06:32;;;;;;;11.50;5.63;;;21.90;43.30;;;;;;4975695;28;20505;-72
2022/03/07 10:09:00;;;;;;;11.70;4.90;;;21.90;43.30;;;;;;4975436;28;20493;-72
2022/03/07 10:11:28;;;;;;;11.77;5.70;;;21.90;43.30;;;;;;4977498;28;20592;-70
2022/03/07 10:13:59;;;;;;;9.77;5.17;;;21.90;43.60;;;;;;4993013;28;20956;-70
2022/03/07 10:16:36;;;;;;;6.97;4.40;;;21.90;43.30;;;;;;4975716;28;20525;-71
2022/03/07 10:19:10;;;;;;;7.80;4.60;;;22.00;43.30;;;;;;4974977;28;20552;-70
2022/03/07 10:21:36;;;;;;;9.43;5.43;;;22.00;43.40;;;;;;4975706;28;20464;-71
2022/03/07 10:24:02;;;;;;;7.33;4.70;;;22.00;43.50;;;;;;4975490;28;20418;-71
2022/03/07 10:26:34;;;;;;;9.43;5.37;;;22.00;43.60;;;;;;4975566;28;20421;-70
2022/03/07 10:29:03;;;;;;;9.17;4.67;;;22.00;41.20;;;;;;4973545;28;20425;-71
2022/03/07 10:31:30;;;;;;;6.60;4.77;;;22.00;43.40;;;;;;4995520;28;20434;-71
2022/03/07 10:34:06;;;;;;;7.20;4.40;;;22.00;43.50;;;;;;4979041;28;20421;-71
2022/03/07 10:36:35;;;;;;;7.50;4.77;;;22.00;43.10;;;;;;4979160;28;20410;-71
2022/03/07 10:39:04;;;;;;;7.17;4.23;;;21.90;42.50;;;;;;4978285;28;20453;-71
2022/03/07 10:41:35;;;;;;;5.30;4.20;;;21.90;42.60;;;;;;4978177;28;20457;-71
2022/03/07 10:44:02;;;;;;;6.07;3.77;;;22.00;43.00;;;;;;4978808;28;20426;-70
2022/03/07 10:46:28;;;;;;;7.10;4.77;;;22.10;42.80;;;;;;4979038;28;20787;-70
2022/03/07 10:48:54;;;;;;;13.73;4.27;;;22.10;42.80;;;;;;4977803;28;20430;-71
2022/03/07 10:51:20;;;;;;;9.40;5.07;;;22.10;42.70;;;;;;4978741;28;20199;-70
2022/03/07 10:53:46;;;;;;;7.90;4.60;;;22.10;42.80;;;;;;4978800;28;20271;-71
2022/03/07 10:56:15;;;;;;;5.70;4.10;;;22.10;43.40;;;;;;4979272;28;20483;-70
2022/03/07 10:58:49;;;;;;;7.10;4.27;;;22.10;43.20;;;;;;4978341;28;20536;-71
2022/03/07 11:01:25;;;;;;;11.50;4.00;;;22.10;43.40;;;;;;4977852;28;20438;-71
2022/03/07 11:03:50;;;;;;;7.83;4.07;;;22.10;43.10;;;;;;4978490;28;20433;-73
2022/03/07 11:06:17;;;;;;;7.97;4.37;;;22.10;43.00;;;;;;4978046;28;21101;-73
2022/03/07 11:08:43;;;;;;;6.37;4.33;;;22.10;43.80;;;;;;4978274;28;20263;-71
2022/03/07 11:11:09;;;;;;;4.57;3.23;;;22.10;44.00;;;;;;4977551;28;20442;-69
2022/03/07 11:13:35;;;;;;;5.50;3.57;;;22.10;44.10;;;;;;4978273;28;20418;-69
2022/03/07 11:16:04;;;;;;;4.80;3.70;;;22.10;43.70;;;;;;4978297;28;20181;-67
2022/03/07 11:18:31;;;;;;;6.17;4.10;;;22.10;43.90;;;;;;4978148;28;20490;-70
2022/03/07 11:20:59;;;;;;;5.50;3.43;;;22.00;42.70;;;;;;4978257;28;20457;-70
2022/03/07 11:23:25;;;;;;;8.17;4.50;;;22.00;43.60;;;;;;4978463;28;20514;-71
2022/03/07 11:25:53;;;;;;;8.40;4.17;;;22.00;42.30;;;;;;4995824;28;20422;-71
2022/03/07 11:28:23;;;;;;;5.93;3.43;;;22.00;43.40;;;;;;4987742;28;20422;-71
2022/03/07 11:30:49;;;;;;;4.60;3.07;;;22.00;43.60;;;;;;4996529;28;20461;-71
2022/03/07 11:33:16;;;;;;;5.07;3.20;;;22.00;43.90;;;;;;4997359;28;20464;-71
2022/03/07 11:35:48;;;;;;;4.60;3.47;;;22.00;44.00;;;;;;4996645;28;20174;-71
2022/03/07 11:38:17;;;;;;;5.03;3.50;;;22.00;40.30;;;;;;4996989;28;20453;-71
2022/03/07 11:41:12;;;;;;;15.73;4.43;;;22.00;40.80;;;;;;4997087;28;20464;-69
2022/03/07 11:43:56;;;;;;;7.10;4.50;;;22.00;39.80;;;;;;4997061;28;20413;-71
2022/03/07 11:46:25;;;;;;;6.00;3.87;;;21.90;40.30;;;;;;4997501;28;20433;-70
2022/03/07 11:48:50;;;;;;;6.43;3.80;;;21.90;40.20;;;;;;4978829;28;20438;-70
2022/03/07 11:51:22;;;;;;;7.70;3.70;;;21.90;40.30;;;;;;4997409;28;20505;-70
2022/03/07 11:53:49;;;;;;;7.20;4.40;;;21.80;40.10;;;;;;4989230;28;20203;-70
2022/03/07 11:56:19;;;;;;;8.80;3.40;;;21.70;39.80;;;;;;4977889;28;20977;-67
2022/03/07 11:58:51;;;;;;;8.50;3.80;;;21.80;41.00;;;;;;4977062;28;20450;-70
2022/03/07 12:01:18;;;;;;;5.50;3.73;;;21.80;40.70;;;;;;4976971;28;20962;-69
2022/03/07 12:03:44;;;;;;;6.90;4.10;;;21.80;40.50;;;;;;4993863;28;20423;-67
2022/03/07 12:06:13;;;;;;;5.97;3.60;;;21.80;39.90;;;;;;4977718;28;20767;-67
2022/03/07 12:08:50;;;;;;;8.00;3.30;;;21.80;40.20;;;;;;4977789;28;20430;-70
2022/03/07 12:11:25;;;;;;;7.47;4.63;;;21.80;40.30;;;;;;4957809;28;20450;-68
2022/03/07 12:13:52;;;;;;;5.90;3.90;;;21.70;40.00;;;;;;4973336;28;20417;-70
2022/03/07 12:16:38;;;;;;;7.37;3.80;;;21.70;40.30;;;;;;4995484;28;20426;-70
2022/03/07 12:19:13;;;;;;;4.80;3.57;;;21.60;40.60;;;;;;4976863;28;20516;-67
2022/03/07 12:21:44;;;;;;;5.93;3.43;;;21.70;40.10;;;;;;4978389;28;20466;-68
2022/03/07 12:24:13;;;;;;;7.80;3.30;;;21.70;40.20;;;;;;4994002;28;20423;-70
2022/03/07 12:26:57;;;;;;;3.83;2.70;;;21.60;40.00;;;;;;4994599;28;20494;-69
2022/03/07 12:29:27;;;;;;;4.47;3.10;;;21.70;40.70;;;;;;4994220;28;20925;-68
2022/03/07 12:31:58;;;;;;;8.20;4.40;;;21.70;40.00;;;;;;4994402;28;20426;-70
2022/03/07 12:34:26;;;;;;;6.50;3.83;;;21.60;39.00;;;;;;4977131;28;20419;-70
2022/03/07 12:36:59;;;;;;;5.30;3.30;;;21.60;40.70;;;;;;4976656;28;20930;-71
2022/03/07 12:39:27;;;;;;;6.53;3.13;;;21.60;40.40;;;;;;4986599;28;20469;-69
2022/03/07 12:41:57;;;;;;;10.03;3.50;;;21.60;40.40;;;;;;4976557;28;20520;-70